Time;durP1;ratioP1;P1;durP2;ratioP2;P2;SDS_P1;SDS_P2;PMS_P1;PMS_P2;Temp;Humidity;BMP_temperature;BMP_pressure;BME280_temperature;BME280_humidity;BME280_pressure;Samples;Min_cycle;Max_cycle;Signal;HPM_P1;HPM_P2
2022/03/23 00:00:50;;;;;;;75.40;44.00;;;7.40;1.00;;;;;;6068094;23;20091;-85
2022/03/23 00:03:15;;;;;;;75.68;45.05;;;6.60;1.00;;;;;;6089694;23;20069;-85
2022/03/23 00:05:42;;;;;;;78.18;45.15;;;6.80;1.00;;;;;;6093147;23;20323;-85
2022/03/23 00:08:08;;;;;;;75.50;45.58;;;6.60;1.00;;;;;;6093178;23;20288;-85
2022/03/23 00:10:35;;;;;;;78.55;45.70;;;7.30;1.00;;;;;;6094683;23;20018;-85
2022/03/23 00:13:02;;;;;;;73.68;45.05;;;7.70;1.00;;;;;;6067138;23;20382;-85
2022/03/23 00:15:30;;;;;;;84.30;46.77;;;6.50;1.00;;;;;;6094813;23;20081;-85
2022/03/23 00:17:56;;;;;;;84.90;45.92;;;6.50;1.00;;;;;;6093279;23;20018;-85
2022/03/23 00:20:22;;;;;;;76.32;47.10;;;6.60;1.00;;;;;;6092412;23;20014;-84
2022/03/23 00:22:48;;;;;;;80.95;47.40;;;6.50;1.00;;;;;;6043255;23;20014;-84
2022/03/23 00:25:14;;;;;;;81.82;46.85;;;6.50;1.00;;;;;;6092455;23;20014;-86
2022/03/23 00:27:40;;;;;;;84.60;47.17;;;6.40;1.00;;;;;;6094644;23;20046;-84
2022/03/23 00:30:08;;;;;;;75.20;44.05;;;7.80;1.00;;;;;;6093570;23;20021;-85
2022/03/23 00:32:34;;;;;;;82.15;47.00;;;6.40;1.00;;;;;;6090056;23;20128;-86
2022/03/23 00:35:00;;;;;;;85.50;48.22;;;6.30;1.00;;;;;;6091250;23;20022;-84
2022/03/23 00:37:26;;;;;;;85.47;49.20;;;6.50;1.00;;;;;;6094242;23;20022;-85
2022/03/23 00:39:52;;;;;;;82.20;48.17;;;6.30;1.00;;;;;;6093060;23;20430;-85
2022/03/23 00:42:18;;;;;;;82.72;47.60;;;6.30;1.00;;;;;;6093303;23;20014;-84
2022/03/23 00:44:43;;;;;;;81.95;48.53;;;6.20;1.00;;;;;;6094119;23;20023;-84
2022/03/23 00:47:10;;;;;;;87.65;47.95;;;6.70;1.00;;;;;;6093910;23;20069;-85
2022/03/23 00:49:37;;;;;;;89.35;50.05;;;7.20;1.00;;;;;;6092471;23;20272;-84
2022/03/23 00:52:05;;;;;;;77.15;45.83;;;6.90;1.00;;;;;;6094008;23;20010;-85
2022/03/23 00:54:34;;;;;;;75.82;44.47;;;6.20;2.00;;;;;;6093896;23;20398;-85
2022/03/23 00:57:01;;;;;;;83.35;47.70;;;6.10;2.20;;;;;;6092283;23;20061;-85
2022/03/23 00:59:27;;;;;;;83.40;47.40;;;6.10;2.10;;;;;;6093878;23;20030;-85
2022/03/23 01:01:53;;;;;;;89.90;50.30;;;7.50;3.50;;;;;;6092298;23;20434;-86
2022/03/23 01:04:20;;;;;;;93.43;52.20;;;6.20;35.00;;;;;;6088630;23;20014;-86
2022/03/23 01:06:46;;;;;;;83.63;47.28;;;6.40;55.50;;;;;;6093247;23;20022;-85
2022/03/23 01:09:13;;;;;;;87.07;48.22;;;6.80;44.50;;;;;;6087082;23;20045;-85
2022/03/23 01:11:39;;;;;;;91.82;51.42;;;6.10;34.60;;;;;;6066117;23;20021;-85
2022/03/23 01:14:06;;;;;;;79.22;46.63;;;6.20;42.00;;;;;;6089428;23;20094;-85
2022/03/23 01:16:32;;;;;;;82.83;49.03;;;6.10;34.00;;;;;;6093066;23;20407;-84
2022/03/23 01:18:58;;;;;;;86.70;48.60;;;7.30;28.00;;;;;;6093401;23;20238;-85
2022/03/23 01:21:25;;;;;;;75.30;45.60;;;6.00;25.40;;;;;;6091660;23;20022;-85
2022/03/23 01:23:51;;;;;;;79.03;47.05;;;6.60;25.00;;;;;;6067822;23;20058;-89
2022/03/23 01:26:17;;;;;;;80.88;48.17;;;;;;;;;;6067446;23;20022;-85
2022/03/23 01:28:43;;;;;;;89.40;48.88;;;5.80;21.00;;;;;;6089651;23;20022;-85
2022/03/23 01:31:10;;;;;;;81.88;45.42;;;5.90;20.70;;;;;;6065125;23;20434;-85
2022/03/23 01:33:36;;;;;;;90.28;50.10;;;5.90;23.00;;;;;;6093554;23;20057;-86
2022/03/23 01:36:02;;;;;;;83.63;47.28;;;7.50;23.30;;;;;;6092925;23;20029;-85
2022/03/23 01:38:28;;;;;;;85.40;47.97;;;5.80;23.30;;;;;;6091796;23;20026;-85
2022/03/23 01:40:54;;;;;;;81.53;47.00;;;7.20;23.80;;;;;;6091921;23;20132;-85
2022/03/23 01:43:20;;;;;;;81.70;48.10;;;7.00;23.30;;;;;;6093650;23;20101;-86
2022/03/23 01:45:46;;;;;;;84.18;47.08;;;5.70;23.10;;;;;;6092645;23;20034;-85
2022/03/23 01:48:12;;;;;;;94.95;48.35;;;5.70;22.80;;;;;;6091462;23;20042;-84
2022/03/23 01:50:37;;;;;;;80.00;45.47;;;5.60;23.10;;;;;;6092088;23;20018;-87
2022/03/23 01:53:03;;;;;;;86.65;48.72;;;5.70;23.90;;;;;;6067042;23;20794;-84
2022/03/23 01:55:29;;;;;;;96.65;52.35;;;7.30;24.80;;;;;;6092916;23;20418;-85
2022/03/23 01:57:55;;;;;;;87.50;50.97;;;5.60;23.90;;;;;;6092711;23;20018;-87
2022/03/23 02:00:21;;;;;;;88.75;48.78;;;5.60;25.00;;;;;;6092388;23;20330;-85
2022/03/23 02:02:47;;;;;;;89.80;49.55;;;;;;;;;;6092478;23;20488;-86
2022/03/23 02:05:14;;;;;;;83.13;46.80;;;5.50;22.20;;;;;;6066568;23;20023;-85
2022/03/23 02:07:40;;;;;;;81.65;46.20;;;5.50;24.70;;;;;;6092182;23;20346;-85
2022/03/23 02:10:06;;;;;;;82.93;48.10;;;5.60;23.00;;;;;;6092158;23;20050;-86
2022/03/23 02:12:32;;;;;;;80.57;47.33;;;5.40;25.80;;;;;;6093357;23;20050;-84
2022/03/23 02:15:00;;;;;;;86.10;48.58;;;5.40;26.20;;;;;;6091436;23;20018;-85
2022/03/23 02:17:26;;;;;;;81.82;47.13;;;6.90;26.70;;;;;;6092641;23;20029;-86
2022/03/23 02:19:52;;;;;;;84.25;47.70;;;6.90;26.90;;;;;;6092995;23;20089;-85
2022/03/23 02:22:18;;;;;;;89.82;49.25;;;5.30;24.20;;;;;;6092310;23;20068;-84
2022/03/23 02:24:46;;;;;;;89.75;48.80;;;6.70;26.90;;;;;;6092779;23;20023;-85
2022/03/23 02:27:16;;;;;;;96.50;49.75;;;4.60;24.40;;;;;;6092492;23;20077;-84
2022/03/23 02:29:42;;;;;;;84.50;48.40;;;7.30;28.10;;;;;;6091195;23;20029;-85
2022/03/23 02:32:08;;;;;;;83.75;45.90;;;5.70;27.40;;;;;;6042791;23;20022;-85
2022/03/23 02:34:35;;;;;;;80.85;47.28;;;6.60;28.70;;;;;;6093675;23;20055;-85
2022/03/23 02:37:01;;;;;;;89.22;49.80;;;6.50;27.70;;;;;;6066595;23;20022;-85
2022/03/23 02:39:27;;;;;;;85.68;48.35;;;5.20;27.90;;;;;;6093724;23;20077;-85
2022/03/23 02:41:56;;;;;;;88.93;48.15;;;5.20;28.60;;;;;;6090511;23;20022;-86
2022/03/23 02:44:23;;;;;;;87.80;48.95;;;5.20;29.50;;;;;;6090030;23;20105;-86
2022/03/23 02:46:49;;;;;;;86.10;48.63;;;5.10;28.60;;;;;;6093597;23;20018;-85
2022/03/23 02:49:20;;;;;;;81.32;48.65;;;5.00;26.50;;;;;;6091167;23;20057;-85
2022/03/23 02:51:47;;;;;;;90.68;48.58;;;5.10;29.00;;;;;;6094061;23;20019;-85
2022/03/23 03:02:56;;;;;;;85.95;46.38;;;5.00;29.60;;;;;;6066695;23;20028;-86
2022/03/23 03:05:22;;;;;;;82.60;45.47;;;4.90;27.50;;;;;;6093368;23;20402;-85
2022/03/23 03:10:32;;;;;;;82.80;45.65;;;6.50;30.10;;;;;;6069669;23;20109;-85
2022/03/23 03:12:58;;;;;;;82.40;44.85;;;4.90;31.20;;;;;;6094598;23;20033;-86
2022/03/23 03:15:24;;;;;;;83.95;44.38;;;4.90;31.40;;;;;;6094241;23;20023;-84
2022/03/23 03:17:50;;;;;;;83.15;46.10;;;5.40;32.60;;;;;;6094275;23;20106;-85
2022/03/23 03:20:17;;;;;;;92.55;47.80;;;6.60;34.00;;;;;;6044288;23;20514;-88
2022/03/23 03:22:45;;;;;;;94.28;50.47;;;5.00;30.10;;;;;;6092983;23;20097;-85
2022/03/23 03:25:14;;;;;;;;;;;4.80;33.10;;;;;;6094417;23;20018;-84
2022/03/23 03:27:40;;;;;;;;;;;4.80;32.50;;;;;;6045530;23;19918;-86
2022/03/23 03:30:09;;;;;;;88.43;48.90;;;6.50;32.90;;;;;;6093062;23;19924;-86
2022/03/23 03:32:35;;;;;;;104.22;49.38;;;4.80;32.30;;;;;;6068930;23;20022;-84
2022/03/23 03:35:01;;;;;;;93.65;49.50;;;5.20;33.50;;;;;;6093074;23;20442;-85
2022/03/23 03:37:27;;;;;;;98.45;50.10;;;4.70;32.80;;;;;;6091811;23;20022;-84
2022/03/23 03:39:52;;;;;;;88.35;48.25;;;5.20;32.20;;;;;;6092216;23;20036;-85
2022/03/23 03:42:19;;;;;;;96.43;49.42;;;5.30;33.00;;;;;;6044144;23;20030;-85
2022/03/23 03:44:45;;;;;;;87.55;48.47;;;5.10;32.20;;;;;;6067522;23;20347;-85
2022/03/23 03:47:12;;;;;;;93.07;47.63;;;6.40;34.60;;;;;;6043930;23;20014;-85
2022/03/23 03:49:38;;;;;;;80.75;46.88;;;6.50;36.30;;;;;;6093023;23;20069;-85
2022/03/23 03:52:05;;;;;;;100.47;48.67;;;5.70;36.50;;;;;;6094671;23;20074;-84
2022/03/23 03:54:31;;;;;;;84.47;46.90;;;4.60;36.90;;;;;;6093682;23;20053;-86
2022/03/23 03:56:59;;;;;;;84.10;46.97;;;4.70;37.80;;;;;;6094002;23;20029;-85
2022/03/23 03:59:25;;;;;;;83.90;46.80;;;4.60;38.80;;;;;;6091944;23;20052;-84
2022/03/23 04:01:51;;;;;;;83.72;47.75;;;4.50;37.90;;;;;;6094564;23;20030;-85
2022/03/23 04:04:17;;;;;;;84.85;48.83;;;5.90;39.20;;;;;;6064833;23;20071;-84
2022/03/23 04:06:42;;;;;;;89.45;48.92;;;4.50;38.60;;;;;;6094603;23;20041;-84
2022/03/23 04:09:08;;;;;;;86.65;49.67;;;4.50;39.90;;;;;;6091702;23;20022;-85
2022/03/23 04:11:35;;;;;;;91.78;49.10;;;4.40;39.40;;;;;;6092459;23;20026;-85
2022/03/23 04:14:01;;;;;;;97.32;51.70;;;4.40;39.30;;;;;;6093339;23;20076;-85
2022/03/23 04:16:27;;;;;;;87.53;48.50;;;4.30;40.30;;;;;;6093583;23;20093;-85
2022/03/23 04:18:52;;;;;;;92.35;51.33;;;6.00;41.60;;;;;;6093297;23;20061;-85
2022/03/23 04:21:18;;;;;;;88.78;51.95;;;4.40;40.60;;;;;;6067936;23;20021;-86
2022/03/23 04:23:44;;;;;;;93.95;50.00;;;5.10;41.30;;;;;;6094217;23;20045;-85
2022/03/23 04:26:10;;;;;;;95.85;51.50;;;4.40;41.60;;;;;;6092454;23;20307;-85
2022/03/23 04:28:35;;;;;;;87.30;49.63;;;4.40;41.10;;;;;;6094214;23;20131;-85
2022/03/23 04:31:01;;;;;;;91.72;50.22;;;4.40;40.90;;;;;;6042839;23;20033;-85
2022/03/23 04:33:27;;;;;;;90.05;50.15;;;5.30;41.20;;;;;;6094481;23;20351;-85
2022/03/23 04:35:53;;;;;;;93.57;48.90;;;5.40;42.00;;;;;;6067986;23;20097;-86
2022/03/23 04:38:20;;;;;;;79.32;46.30;;;4.40;41.50;;;;;;6092274;23;20018;-85
2022/03/23 04:40:46;;;;;;;93.97;48.72;;;4.30;42.30;;;;;;6093560;23;20117;-85
2022/03/23 04:43:12;;;;;;;88.75;49.42;;;4.20;42.00;;;;;;6093855;23;20117;-85
2022/03/23 04:45:37;;;;;;;96.40;51.03;;;6.10;43.70;;;;;;6091055;23;20430;-85
2022/03/23 04:48:04;;;;;;;88.25;49.00;;;5.60;47.00;;;;;;6093976;23;20044;-85
2022/03/23 04:50:30;;;;;;;105.83;51.00;;;6.30;44.00;;;;;;6093100;23;20116;-85
2022/03/23 04:52:56;;;;;;;89.25;49.28;;;4.20;43.50;;;;;;6094324;23;20326;-85
2022/03/23 04:55:22;;;;;;;92.07;51.67;;;4.20;45.60;;;;;;6042820;23;20156;-85
2022/03/23 04:57:48;;;;;;;85.55;48.45;;;4.20;45.20;;;;;;6094198;23;20065;-85
2022/03/23 05:00:17;;;;;;;81.55;47.45;;;4.10;45.50;;;;;;6091291;23;20030;-85
2022/03/23 05:02:46;;;;;;;83.88;47.08;;;4.10;46.90;;;;;;6093383;23;20018;-86
2022/03/23 05:05:12;;;;;;;88.43;48.17;;;4.10;46.90;;;;;;6092455;23;20460;-85
2022/03/23 05:07:39;;;;;;;82.93;47.88;;;4.20;47.50;;;;;;6091749;23;20089;-85
2022/03/23 05:10:07;;;;;;;81.25;48.35;;;4.10;48.50;;;;;;6092122;23;20093;-85
2022/03/23 05:12:32;;;;;;;87.25;47.47;;;4.10;47.40;;;;;;6044619;23;20063;-85
2022/03/23 05:14:58;;;;;;;89.28;47.50;;;5.50;48.80;;;;;;6092865;23;20022;-85
2022/03/23 05:17:24;;;;;;;88.30;48.38;;;4.00;48.30;;;;;;6092401;23;20438;-85
2022/03/23 05:19:49;;;;;;;111.95;49.83;;;4.00;49.90;;;;;;6044943;23;20015;-85
2022/03/23 05:22:16;;;;;;;91.28;47.90;;;;;;;;;;6068630;23;20076;-85
2022/03/23 05:24:41;;;;;;;93.78;48.83;;;4.00;46.30;;;;;;6093616;23;20026;-85
2022/03/23 05:27:08;;;;;;;91.82;49.80;;;3.90;49.40;;;;;;6044532;23;20018;-87
2022/03/23 05:29:35;;;;;;;104.20;49.67;;;4.00;49.90;;;;;;6088832;23;20121;-86
2022/03/23 05:32:01;;;;;;;83.93;47.78;;;4.60;50.60;;;;;;6093713;23;20021;-86
2022/03/23 05:34:26;;;;;;;94.65;48.03;;;4.10;54.00;;;;;;6092340;23;20053;-86
2022/03/23 05:36:52;;;;;;;98.22;52.83;;;3.10;52.70;;;;;;6043084;23;20027;-87
2022/03/23 05:39:18;;;;;;;87.43;49.53;;;4.40;52.40;;;;;;6094282;23;20030;-87
2022/03/23 05:41:46;;;;;;;95.47;50.55;;;5.50;52.80;;;;;;6091828;23;20015;-86
2022/03/23 05:44:12;;;;;;;92.32;50.33;;;3.90;52.40;;;;;;6093740;23;20041;-87
2022/03/23 05:46:38;;;;;;;90.03;48.67;;;3.90;52.50;;;;;;6092032;23;20049;-87
2022/03/23 05:49:04;;;;;;;92.25;49.38;;;4.50;54.80;;;;;;6068566;23;20023;-87
2022/03/23 05:51:30;;;;;;;90.63;49.83;;;3.70;54.60;;;;;;6094189;23;20014;-86
2022/03/23 05:53:56;;;;;;;90.50;50.45;;;3.90;53.60;;;;;;6068449;23;20139;-88
2022/03/23 05:56:22;;;;;;;89.25;48.85;;;3.90;54.10;;;;;;6093597;23;20025;-87
2022/03/23 05:58:48;;;;;;;85.18;47.95;;;5.70;55.10;;;;;;6068208;23;20391;-87
2022/03/23 06:01:14;;;;;;;92.38;49.97;;;4.40;55.20;;;;;;6094516;23;20053;-87
2022/03/23 06:03:40;;;;;;;95.70;51.53;;;5.50;56.70;;;;;;6067774;23;20058;-87
2022/03/23 06:06:06;;;;;;;102.35;54.13;;;4.00;54.50;;;;;;6021670;23;20022;-86
2022/03/23 06:08:32;;;;;;;100.32;53.45;;;3.60;53.80;;;;;;6094496;23;20280;-87
2022/03/23 06:10:58;;;;;;;100.60;54.53;;;5.70;54.70;;;;;;6069454;23;20057;-87
2022/03/23 06:13:24;;;;;;;108.70;55.38;;;3.90;57.90;;;;;;6093832;23;20014;-89
2022/03/23 06:15:50;;;;;;;109.72;56.80;;;4.20;53.90;;;;;;6044120;23;20066;-87
2022/03/23 06:18:15;;;;;;;108.60;56.55;;;4.20;53.40;;;;;;6068070;23;20025;-87
2022/03/23 06:20:41;;;;;;;119.32;56.67;;;4.30;55.10;;;;;;6068000;23;20335;-84
2022/03/23 06:23:07;;;;;;;102.65;53.58;;;5.00;54.60;;;;;;6068561;23;20078;-87
2022/03/23 06:25:33;;;;;;;115.15;57.15;;;5.40;55.50;;;;;;6093575;23;20106;-86
2022/03/23 06:27:59;;;;;;;103.28;57.13;;;4.80;54.40;;;;;;6069324;23;20090;-87
2022/03/23 06:30:24;;;;;;;127.13;59.80;;;5.10;58.60;;;;;;6093509;23;20394;-87
2022/03/23 06:32:50;;;;;;;110.07;61.33;;;5.40;54.90;;;;;;6068500;23;20019;-87
2022/03/23 06:35:16;;;;;;;105.72;58.63;;;4.60;53.80;;;;;;6093539;23;20026;-87
2022/03/23 06:37:43;;;;;;;108.20;59.35;;;5.00;53.60;;;;;;6093905;23;20072;-86
2022/03/23 06:40:09;;;;;;;117.30;60.67;;;4.70;53.20;;;;;;6094202;23;20022;-87
2022/03/23 06:42:35;;;;;;;109.07;60.50;;;4.90;51.80;;;;;;6093871;23;20018;-86
2022/03/23 06:45:02;;;;;;;110.60;60.08;;;5.80;54.00;;;;;;6066938;23;20022;-87
2022/03/23 06:47:29;;;;;;;123.27;62.73;;;5.00;53.20;;;;;;6094089;23;20097;-87
2022/03/23 06:49:55;;;;;;;115.80;63.03;;;5.60;52.90;;;;;;6094356;23;20054;-86
2022/03/23 06:52:21;;;;;;;111.88;61.75;;;5.10;51.10;;;;;;6068206;23;20026;-86
2022/03/23 06:54:47;;;;;;;110.65;58.92;;;5.10;53.00;;;;;;6067022;23;20665;-87
2022/03/23 06:57:12;;;;;;;112.15;61.70;;;5.20;51.90;;;;;;6094073;23;20018;-86
2022/03/23 06:59:38;;;;;;;111.13;62.80;;;5.60;52.50;;;;;;6042928;23;20021;-86
2022/03/23 07:02:05;;;;;;;128.32;63.80;;;5.40;53.20;;;;;;6094214;23;20046;-86
2022/03/23 07:04:31;;;;;;;129.38;68.13;;;5.60;50.00;;;;;;6020831;23;20022;-86
2022/03/23 07:06:56;;;;;;;126.18;68.55;;;5.50;53.60;;;;;;6068723;23;20473;-86
2022/03/23 07:09:31;;;;;;;135.27;72.35;;;6.70;53.40;;;;;;6094374;23;20019;-86
2022/03/23 07:12:00;;;;;;;134.50;73.75;;;5.80;52.10;;;;;;6094771;23;20065;-86
2022/03/23 07:14:28;;;;;;;129.77;73.63;;;6.10;51.90;;;;;;6067661;23;20014;-85
2022/03/23 07:16:54;;;;;;;140.05;77.03;;;7.00;51.60;;;;;;6068387;23;20082;-86
2022/03/23 07:19:20;;;;;;;132.38;76.18;;;6.10;51.00;;;;;;6068632;23;20018;-86
2022/03/23 07:21:46;;;;;;;135.65;74.93;;;6.40;46.60;;;;;;6044459;23;20430;-86
2022/03/23 07:24:11;;;;;;;128.48;72.75;;;7.90;49.30;;;;;;6093951;23;20055;-87
2022/03/23 07:26:37;;;;;;;131.43;72.60;;;7.80;49.40;;;;;;6094586;23;20033;-86
2022/03/23 07:29:03;;;;;;;122.38;72.35;;;8.40;48.90;;;;;;6094002;23;20026;-87
2022/03/23 07:31:29;;;;;;;127.85;72.07;;;7.00;47.50;;;;;;6094881;23;20413;-87
2022/03/23 07:33:54;;;;;;;122.25;69.07;;;6.90;47.20;;;;;;6094338;23;20145;-86
2022/03/23 07:36:20;;;;;;;117.60;68.45;;;7.00;45.30;;;;;;6069551;23;20030;-87
2022/03/23 07:38:46;;;;;;;123.47;69.72;;;7.10;45.10;;;;;;6068837;23;20014;-87
2022/03/23 07:41:11;;;;;;;116.55;67.72;;;7.30;44.30;;;;;;6094357;23;20469;-87
2022/03/23 07:43:37;;;;;;;105.05;63.53;;;7.40;42.10;;;;;;6067856;23;20397;-87
2022/03/23 07:46:03;;;;;;;103.30;63.00;;;7.80;40.40;;;;;;6093577;23;20070;-87
2022/03/23 07:48:28;;;;;;;92.05;55.35;;;7.80;39.00;;;;;;6094448;23;20153;-87
2022/03/23 07:50:54;;;;;;;94.50;55.53;;;9.90;35.60;;;;;;6094077;23;20114;-87
2022/03/23 07:53:20;;;;;;;83.22;46.97;;;10.50;19.60;;;;;;6070848;23;20026;-88
2022/03/23 07:55:46;;;;;;;73.25;43.60;;;11.90;1.00;;;;;;6069816;23;20073;-87
2022/03/23 07:58:12;;;;;;;66.43;37.70;;;13.30;1.00;;;;;;6095943;23;20053;-87
2022/03/23 08:00:38;;;;;;;66.63;37.75;;;14.20;1.00;;;;;;6095278;23;20026;-84
2022/03/23 08:03:05;;;;;;;72.75;38.60;;;14.90;1.00;;;;;;6097743;23;20147;-86
2022/03/23 08:05:32;;;;;;;59.37;38.03;;;16.00;1.00;;;;;;6071626;23;20019;-85
2022/03/23 08:07:58;;;;;;;61.70;36.65;;;16.90;1.00;;;;;;6047655;23;20014;-85
2022/03/23 08:10:24;;;;;;;56.97;36.20;;;17.60;1.00;;;;;;6096795;23;20226;-87
2022/03/23 08:12:51;;;;;;;61.60;35.92;;;18.50;1.00;;;;;;6097379;23;20173;-86
2022/03/23 08:15:16;;;;;;;53.92;34.05;;;19.00;1.00;;;;;;6047288;23;20030;-86
2022/03/23 08:17:42;;;;;;;52.42;33.15;;;19.30;1.00;;;;;;6097089;23;20014;-86
2022/03/23 08:22:55;;;;;;;52.85;30.48;;;20.40;1.00;;;;;;6098011;23;20098;-87
2022/03/23 08:25:21;;;;;;;48.65;30.70;;;20.50;1.00;;;;;;6097634;23;20309;-87
2022/03/23 08:27:47;;;;;;;50.85;30.83;;;20.60;1.00;;;;;;6098175;23;20023;-87
2022/03/23 08:30:14;;;;;;;55.20;31.00;;;20.80;1.00;;;;;;6097494;23;20021;-87
2022/03/23 08:32:39;;;;;;;48.45;30.75;;;19.80;1.00;;;;;;6070553;23;20018;-87
2022/03/23 08:35:07;;;;;;;42.45;29.40;;;20.90;1.00;;;;;;6071345;23;20061;-87
2022/03/23 08:37:33;;;;;;;50.72;29.95;;;21.20;99.90;;;;;;6097029;23;20022;-87
2022/03/23 08:39:59;;;;;;;49.33;30.13;;;21.40;1.00;;;;;;6095583;23;20022;-87
2022/03/23 08:42:25;;;;;;;42.05;27.50;;;21.90;1.00;;;;;;6095980;23;20085;-87
2022/03/23 08:44:52;;;;;;;39.60;26.75;;;22.50;1.00;;;;;;6068198;23;20347;-87
2022/03/23 08:47:17;;;;;;;47.80;28.25;;;22.90;1.00;;;;;;6095788;23;20098;-87
2022/03/23 08:49:44;;;;;;;45.65;28.08;;;23.40;99.90;;;;;;6094331;23;20109;-87
2022/03/23 08:52:10;;;;;;;48.55;27.48;;;24.00;1.00;;;;;;6022197;23;20374;-87
2022/03/23 08:54:36;;;;;;;40.92;26.13;;;23.50;99.90;;;;;;6095139;23;20018;-87
2022/03/23 08:57:01;;;;;;;39.63;25.90;;;24.00;99.90;;;;;;6094947;23;20115;-86
2022/03/23 08:59:27;;;;;;;39.47;25.75;;;24.30;99.90;;;;;;6068652;23;20097;-86
2022/03/23 09:01:53;;;;;;;41.00;25.38;;;24.60;99.90;;;;;;6094712;23;20246;-86
2022/03/23 09:04:19;;;;;;;40.47;24.80;;;24.10;99.90;;;;;;6069409;23;20408;-87
2022/03/23 09:06:45;;;;;;;42.65;24.90;;;24.30;99.90;;;;;;6094811;23;20026;-87
2022/03/23 09:09:11;;;;;;;37.92;24.30;;;24.60;99.90;;;;;;6069606;23;20256;-87
2022/03/23 09:11:37;;;;;;;37.50;23.75;;;25.60;99.90;;;;;;6069646;23;20022;-87
2022/03/23 09:14:03;;;;;;;35.53;23.05;;;25.90;99.90;;;;;;6093429;23;20057;-86
2022/03/23 09:16:28;;;;;;;34.28;23.23;;;25.90;99.90;;;;;;6069659;23;20386;-87
2022/03/23 09:18:55;;;;;;;35.60;23.17;;;26.40;99.90;;;;;;6094526;23;20130;-86
2022/03/23 09:21:21;;;;;;;40.33;22.10;;;26.40;99.90;;;;;;6021951;23;20018;-87
2022/03/23 09:23:48;;;;;;;31.65;21.00;;;26.80;99.90;;;;;;6094543;23;20022;-87
2022/03/23 09:26:14;;;;;;;27.73;20.47;;;26.20;99.90;;;;;;6095300;23;20023;-87
2022/03/23 09:28:40;;;;;;;35.35;20.70;;;26.70;99.90;;;;;;6068914;23;20281;-87
2022/03/23 09:31:06;;;;;;;31.23;21.50;;;26.80;99.90;;;;;;6094827;23;20019;-87
2022/03/23 09:33:32;;;;;;;30.35;20.63;;;26.90;99.90;;;;;;6070333;23;20018;-88
2022/03/23 09:35:58;;;;;;;36.58;21.58;;;27.00;99.90;;;;;;6094788;23;20030;-87
2022/03/23 09:38:24;;;;;;;31.63;19.20;;;27.20;99.90;;;;;;6069589;23;20026;-87
2022/03/23 09:40:51;;;;;;;28.25;20.38;;;26.70;99.90;;;;;;6094575;23;20503;-88
2022/03/23 09:43:21;;;;;;;25.98;18.98;;;27.20;99.90;;;;;;6067328;23;20033;-88
2022/03/23 09:45:47;;;;;;;29.85;17.67;;;27.60;99.90;;;;;;6094313;23;20023;-87
2022/03/23 09:48:16;;;;;;;29.17;16.80;;;26.70;99.90;;;;;;6095820;23;20026;-87
2022/03/23 09:50:46;;;;;;;30.38;16.70;;;27.50;99.90;;;;;;6095396;23;20018;-89
2022/03/23 09:53:12;;;;;;;28.55;17.23;;;27.80;99.90;;;;;;6069962;23;20022;-87
2022/03/23 09:55:38;;;;;;;23.30;16.05;;;28.00;99.90;;;;;;6095678;23;20022;-87
2022/03/23 09:58:06;;;;;;;23.70;16.00;;;27.60;99.90;;;;;;6095285;23;20029;-87
2022/03/23 10:00:38;;;;;;;23.52;16.00;;;27.10;99.90;;;;;;6094093;23;20022;-87
2022/03/23 10:03:42;;;;;;;29.05;16.10;;;26.80;99.90;;;;;;6094044;23;20073;-86
2022/03/23 10:06:38;;;;;;;25.40;15.68;;;26.60;99.90;;;;;;6069085;23;20046;-87
2022/03/23 10:09:51;;;;;;;25.00;15.35;;;25.30;99.90;;;;;;6094124;23;20106;-87
2022/03/23 10:12:39;;;;;;;25.40;16.52;;;25.00;99.90;;;;;;6045862;23;20060;-87
2022/03/23 10:15:42;;;;;;;22.90;15.38;;;26.20;99.90;;;;;;6067046;23;20026;-87
2022/03/23 10:18:29;;;;;;;21.70;14.60;;;26.50;99.90;;;;;;6094823;23;20120;-87
2022/03/23 10:20:55;;;;;;;22.55;15.13;;;27.00;99.90;;;;;;6094138;23;20302;-87
2022/03/23 10:23:21;;;;;;;21.83;13.30;;;27.80;99.90;;;;;;6068896;23;20018;-88
2022/03/23 10:25:47;;;;;;;28.15;13.07;;;28.50;99.90;;;;;;6093943;23;20018;-87
2022/03/23 10:28:15;;;;;;;22.50;13.93;;;29.00;99.90;;;;;;6069184;23;20460;-87
2022/03/23 10:30:42;;;;;;;25.92;14.18;;;28.70;99.90;;;;;;6093426;23;20018;-87
2022/03/23 10:33:24;;;;;;;21.38;12.05;;;29.40;99.90;;;;;;6043534;23;20418;-87
2022/03/23 10:35:51;;;;;;;25.23;12.90;;;29.60;99.90;;;;;;6068519;23;20093;-88
2022/03/23 10:38:23;;;;;;;26.25;13.60;;;29.50;99.90;;;;;;6094675;23;20022;-87
2022/03/23 10:40:52;;;;;;;21.58;12.35;;;29.10;99.90;;;;;;6093100;23;20446;-88
2022/03/23 10:43:34;;;;;;;21.13;13.43;;;29.00;99.90;;;;;;6064024;23;20110;-88
2022/03/23 10:46:10;;;;;;;21.52;13.25;;;29.20;99.90;;;;;;6063980;23;20422;-87
2022/03/23 10:48:36;;;;;;;21.33;13.82;;;29.40;99.90;;;;;;6065660;23;20498;-89
2022/03/23 10:51:03;;;;;;;20.45;12.75;;;29.60;99.90;;;;;;6065471;23;20019;-86
2022/03/23 10:53:35;;;;;;;24.25;13.15;;;29.80;99.90;;;;;;6066197;23;20087;-86
2022/03/23 10:56:02;;;;;;;19.25;12.18;;;30.20;99.90;;;;;;6064084;23;20081;-86
2022/03/23 10:58:28;;;;;;;23.35;13.57;;;30.30;99.90;;;;;;6066025;23;20140;-87
2022/03/23 11:01:02;;;;;;;19.13;11.30;;;30.50;99.90;;;;;;6038500;23;20054;-87
2022/03/23 11:03:42;;;;;;;26.90;12.80;;;30.20;99.90;;;;;;6064526;23;20022;-87
2022/03/23 11:06:16;;;;;;;23.08;11.65;;;30.70;99.90;;;;;;6064850;23;20019;-87
2022/03/23 11:08:44;;;;;;;25.15;13.80;;;30.80;99.90;;;;;;6063540;23;20034;-88
2022/03/23 11:16:43;;;;;;;22.17;12.05;;;30.60;99.90;;;;;;6065808;23;20411;-86
2022/03/23 11:19:12;;;;;;;20.65;11.55;;;30.20;99.90;;;;;;6064730;23;20023;-86
2022/03/23 11:22:06;;;;;;;20.13;11.88;;;30.50;99.90;;;;;;6065634;23;20168;-87
2022/03/23 11:24:37;;;;;;;27.23;11.77;;;30.60;99.90;;;;;;6065155;23;20021;-86
2022/03/23 11:27:06;;;;;;;26.40;11.30;;;30.10;99.90;;;;;;6064677;23;20021;-87
2022/03/23 11:29:32;;;;;;;29.27;10.82;;;29.70;99.90;;;;;;6064264;23;20054;-86
2022/03/23 11:32:02;;;;;;;26.63;11.23;;;29.10;99.90;;;;;;6041355;23;20022;-87
2022/03/23 11:34:31;;;;;;;25.90;11.30;;;29.90;99.90;;;;;;6065611;23;20070;-86
2022/03/23 11:36:58;;;;;;;29.00;10.68;;;29.90;99.90;;;;;;6067344;23;20098;-87
2022/03/23 11:39:25;;;;;;;24.35;9.90;;;30.30;99.90;;;;;;6066212;23;20015;-86
2022/03/23 11:41:53;;;;;;;23.65;11.27;;;30.50;99.90;;;;;;6066627;23;20351;-88
2022/03/23 11:44:22;;;;;;;23.90;10.80;;;29.50;99.90;;;;;;6063044;23;20022;-87
2022/03/23 11:46:49;;;;;;;24.60;11.80;;;30.10;99.90;;;;;;6067959;23;20058;-87
2022/03/23 11:49:48;;;;;;;27.75;9.73;;;29.90;99.90;;;;;;6065626;23;20046;-87
2022/03/23 11:52:23;;;;;;;26.63;11.43;;;30.50;99.90;;;;;;6067989;23;20037;-87
2022/03/23 11:58:02;;;;;;;28.70;9.57;;;30.70;99.90;;;;;;6066029;23;20023;-86
2022/03/23 12:00:35;;;;;;;20.17;9.50;;;31.10;99.90;;;;;;6066454;23;20066;-87
2022/03/23 12:03:01;;;;;;;26.33;10.80;;;31.30;99.90;;;;;;6067178;23;20027;-86
2022/03/23 12:05:29;;;;;;;29.60;11.35;;;31.20;99.90;;;;;;6065504;23;20074;-87
2022/03/23 12:07:55;;;;;;;34.28;9.43;;;30.90;99.90;;;;;;6066480;23;20486;-87
2022/03/23 12:10:23;;;;;;;23.20;6.13;;;29.90;99.90;;;;;;6067272;23;20015;-87
2022/03/23 12:12:49;;;;;;;24.25;7.60;;;28.40;99.90;;;;;;6066017;23;20019;-87
2022/03/23 12:15:28;;;;;;;27.05;7.05;;;27.10;99.90;;;;;;6040360;23;20039;-87
2022/03/23 12:17:56;;;;;;;29.90;8.00;;;26.00;99.90;;;;;;6067092;23;20029;-87
2022/03/23 12:20:46;;;;;;;29.35;7.45;;;25.20;99.90;;;;;;6064896;23;20062;-87
2022/03/23 12:23:14;;;;;;;28.42;7.95;;;24.20;99.90;;;;;;6065053;23;20030;-86
2022/03/23 12:25:52;;;;;;;27.15;9.18;;;23.00;99.90;;;;;;6067748;23;20030;-87
2022/03/23 12:28:33;;;;;;;24.40;8.65;;;23.00;99.90;;;;;;6066800;23;20327;-86
2022/03/23 12:31:02;;;;;;;28.17;9.68;;;22.30;99.90;;;;;;6065066;23;20019;-86
2022/03/23 12:33:30;;;;;;;29.33;10.02;;;22.00;99.90;;;;;;6066709;23;20085;-86
2022/03/23 12:36:00;;;;;;;;;;;21.70;99.90;;;;;;6066282;23;20335;-87
2022/03/23 12:38:30;;;;;;;28.75;10.63;;;21.30;99.90;;;;;;6066417;23;19917;-86
2022/03/23 12:41:04;;;;;;;25.45;9.27;;;21.20;99.90;;;;;;6066281;23;20361;-87
2022/03/23 12:43:42;;;;;;;36.67;9.65;;;21.00;99.90;;;;;;6088703;23;20034;-86
2022/03/23 12:46:26;;;;;;;25.85;8.93;;;20.80;99.90;;;;;;6065356;23;20493;-86
2022/03/23 12:57:50;;;;;;;30.20;8.18;;;20.20;99.90;;;;;;6066366;23;20470;-86
2022/03/23 13:00:27;;;;;;;25.50;7.95;;;20.10;99.90;;;;;;6062513;23;20019;-87
2022/03/23 13:03:19;;;;;;;30.90;8.32;;;20.00;99.90;;;;;;6064445;23;20085;-87
2022/03/23 13:05:57;;;;;;;24.88;8.02;;;19.90;99.90;;;;;;6087579;23;20339;-85
2022/03/23 13:08:30;;;;;;;24.48;7.18;;;19.70;99.90;;;;;;6040336;23;20023;-86
2022/03/23 13:11:06;;;;;;;32.10;7.07;;;19.70;99.90;;;;;;6063290;23;20019;-84